sensor_id;sensor_type;location;lat;lon;timestamp;pressure;altitude;pressure_sealevel;temperature;humidity
64844;BME280;51310;52.198;5.422;2023-06-14T00:01:52;101565.84;;;18.10;46.36
64844;BME280;51310;52.198;5.422;2023-06-14T00:04:18;101526.22;;;17.81;46.12
64844;BME280;51310;52.198;5.422;2023-06-14T00:06:46;101554.31;;;18.02;45.92
64844;BME280;51310;52.198;5.422;2023-06-14T00:09:12;101493.47;;;17.55;46.06
64844;BME280;51310;52.198;5.422;2023-06-14T00:11:41;101092.31;;;15.05;46.15
64844;BME280;51310;52.198;5.422;2023-06-14T00:14:07;101084.69;;;15.11;46.07
64844;BME280;51310;52.198;5.422;2023-06-14T00:16:33;101612.56;;;18.08;46.40
64844;BME280;51310;52.198;5.422;2023-06-14T00:19:01;101567.16;;;18.06;46.01
64844;BME280;51310;52.198;5.422;2023-06-14T00:21:31;101219.34;;;15.89;46.10
64844;BME280;51310;52.198;5.422;2023-06-14T00:23:58;101479.09;;;17.40;45.98
64844;BME280;51310;52.198;5.422;2023-06-14T00:26:25;101068.16;;;14.91;46.25
64844;BME280;51310;52.198;5.422;2023-06-14T00:28:52;101423.81;;;16.83;45.81
64844;BME280;51310;52.198;5.422;2023-06-14T00:31:19;101582.09;;;18.01;45.87
64844;BME280;51310;52.198;5.422;2023-06-14T00:33:45;101570.75;;;17.66;45.88
64844;BME280;51310;52.198;5.422;2023-06-14T00:36:11;101477.63;;;17.13;46.81
64844;BME280;51310;52.198;5.422;2023-06-14T00:38:37;101253.72;;;15.93;46.34
64844;BME280;51310;52.198;5.422;2023-06-14T00:41:03;101611.22;;;17.96;46.14
64844;BME280;51310;52.198;5.422;2023-06-14T00:43:29;101516.88;;;17.53;46.41
64844;BME280;51310;52.198;5.422;2023-06-14T00:45:55;101579.09;;;17.96;45.98
64844;BME280;51310;52.198;5.422;2023-06-14T00:48:22;101528.75;;;17.67;45.63
64844;BME280;51310;52.198;5.422;2023-06-14T00:50:49;101624.66;;;17.87;45.91
64844;BME280;51310;52.198;5.422;2023-06-14T00:53:18;101022.78;;;14.58;45.62
64844;BME280;51310;52.198;5.422;2023-06-14T00:55:47;101573.25;;;17.84;45.85
64844;BME280;51310;52.198;5.422;2023-06-14T00:58:14;101575.63;;;17.79;46.10
64844;BME280;51310;52.198;5.422;2023-06-14T01:00:40;101591.69;;;17.79;45.75
64844;BME280;51310;52.198;5.422;2023-06-14T01:03:06;101623.63;;;17.80;45.78
64844;BME280;51310;52.198;5.422;2023-06-14T01:05:33;101568.25;;;17.81;45.55
64844;BME280;51310;52.198;5.422;2023-06-14T01:08:21;101581.47;;;17.74;45.87
64844;BME280;51310;52.198;5.422;2023-06-14T01:11:05;101517.56;;;17.30;46.08
64844;BME280;51310;52.198;5.422;2023-06-14T01:13:39;101072.69;;;14.48;45.83
64844;BME280;51310;52.198;5.422;2023-06-14T01:16:11;101420.06;;;16.52;46.34
64844;BME280;51310;52.198;5.422;2023-06-14T01:18:37;101578.59;;;17.51;46.15
64844;BME280;51310;52.198;5.422;2023-06-14T01:21:04;101520.75;;;17.26;46.58
64844;BME280;51310;52.198;5.422;2023-06-14T01:23:32;101573.44;;;17.58;45.92
64844;BME280;51310;52.198;5.422;2023-06-14T01:25:59;101601.34;;;17.63;45.76
64844;BME280;51310;52.198;5.422;2023-06-14T01:28:29;101478.44;;;16.81;45.98
64844;BME280;51310;52.198;5.422;2023-06-14T01:31:01;101572.25;;;17.52;46.14
64844;BME280;51310;52.198;5.422;2023-06-14T01:33:32;101568.91;;;17.50;46.09
64844;BME280;51310;52.198;5.422;2023-06-14T01:36:02;101389.16;;;16.33;46.56
64844;BME280;51310;52.198;5.422;2023-06-14T01:38:33;101572.06;;;17.29;46.60
64844;BME280;51310;52.198;5.422;2023-06-14T01:40:59;101584.97;;;17.34;46.14
64844;BME280;51310;52.198;5.422;2023-06-14T01:43:30;101544.28;;;16.98;46.87
64844;BME280;51310;52.198;5.422;2023-06-14T01:45:57;101571.22;;;17.21;46.79
64844;BME280;51310;52.198;5.422;2023-06-14T01:48:26;101512.50;;;16.78;46.77
64844;BME280;51310;52.198;5.422;2023-06-14T01:50:52;101576.25;;;17.16;47.00
64844;BME280;51310;52.198;5.422;2023-06-14T01:53:18;101585.25;;;17.06;46.96
64844;BME280;51310;52.198;5.422;2023-06-14T01:55:45;101488.50;;;16.36;47.05
64844;BME280;51310;52.198;5.422;2023-06-14T01:58:14;101099.88;;;14.08;46.94
64844;BME280;51310;52.198;5.422;2023-06-14T02:00:44;101522.81;;;16.65;47.06
64844;BME280;51310;52.198;5.422;2023-06-14T02:03:11;101246.47;;;15.10;46.92
64844;BME280;51310;52.198;5.422;2023-06-14T02:05:37;101565.91;;;17.13;46.67
64844;BME280;51310;52.198;5.422;2023-06-14T02:08:06;101518.22;;;16.33;47.29
64844;BME280;51310;52.198;5.422;2023-06-14T02:10:32;101603.66;;;17.01;47.19
64844;BME280;51310;52.198;5.422;2023-06-14T02:12:58;101474.59;;;16.25;47.57
64844;BME280;51310;52.198;5.422;2023-06-14T02:15:24;101524.25;;;16.43;48.01
64844;BME280;51310;52.198;5.422;2023-06-14T02:18:00;101602.00;;;16.66;48.26
64844;BME280;51310;52.198;5.422;2023-06-14T02:20:27;101079.47;;;13.29;47.91
64844;BME280;51310;52.198;5.422;2023-06-14T02:22:54;101565.38;;;16.59;48.44
64844;BME280;51310;52.198;5.422;2023-06-14T02:25:20;101553.81;;;16.42;48.37
64844;BME280;51310;52.198;5.422;2023-06-14T02:27:46;101576.94;;;16.59;48.20
64844;BME280;51310;52.198;5.422;2023-06-14T02:30:12;101560.00;;;16.42;48.75
64844;BME280;51310;52.198;5.422;2023-06-14T02:32:38;101624.44;;;16.39;48.96
64844;BME280;51310;52.198;5.422;2023-06-14T02:35:07;101580.69;;;16.40;48.91
64844;BME280;51310;52.198;5.422;2023-06-14T02:37:33;101578.31;;;16.29;49.69
64844;BME280;51310;52.198;5.422;2023-06-14T02:39:59;101536.09;;;15.99;49.58
64844;BME280;51310;52.198;5.422;2023-06-14T02:42:25;101093.81;;;13.36;49.22
64844;BME280;51310;52.198;5.422;2023-06-14T02:44:51;101625.13;;;16.15;49.71
64844;BME280;51310;52.198;5.422;2023-06-14T02:47:20;101575.47;;;16.05;50.05
64844;BME280;51310;52.198;5.422;2023-06-14T02:49:46;101584.81;;;16.01;50.10
64844;BME280;51310;52.198;5.422;2023-06-14T02:52:12;101563.88;;;15.62;50.92
64844;BME280;51310;52.198;5.422;2023-06-14T02:54:38;101589.19;;;15.84;51.62
64844;BME280;51310;52.198;5.422;2023-06-14T02:57:06;101596.69;;;15.80;51.92
64844;BME280;51310;52.198;5.422;2023-06-14T02:59:33;101537.44;;;15.33;52.42
64844;BME280;51310;52.198;5.422;2023-06-14T03:02:00;101564.88;;;15.25;52.83
64844;BME280;51310;52.198;5.422;2023-06-14T03:04:26;101595.97;;;15.34;53.32
64844;BME280;51310;52.198;5.422;2023-06-14T03:06:53;101600.47;;;15.34;53.55
64844;BME280;51310;52.198;5.422;2023-06-14T03:09:19;101575.47;;;14.99;53.77
64844;BME280;51310;52.198;5.422;2023-06-14T03:11:45;101609.53;;;15.23;54.11
64844;BME280;51310;52.198;5.422;2023-06-14T03:14:12;101608.84;;;15.21;54.29
64844;BME280;51310;52.198;5.422;2023-06-14T03:16:39;101665.44;;;15.15;54.56
64844;BME280;51310;52.198;5.422;2023-06-14T03:19:06;101496.16;;;14.48;54.06
64844;BME280;51310;52.198;5.422;2023-06-14T03:21:32;101657.75;;;15.30;54.20
64844;BME280;51310;52.198;5.422;2023-06-14T03:24:00;101616.31;;;15.18;54.30
64844;BME280;51310;52.198;5.422;2023-06-14T03:26:26;101578.50;;;14.87;54.14
64844;BME280;51310;52.198;5.422;2023-06-14T03:28:52;101614.72;;;15.25;54.15
64844;BME280;51310;52.198;5.422;2023-06-14T03:31:18;101620.59;;;15.11;54.66
64844;BME280;51310;52.198;5.422;2023-06-14T03:33:44;101015.03;;;11.43;54.22
64844;BME280;51310;52.198;5.422;2023-06-14T03:36:10;101081.53;;;11.78;54.50
64844;BME280;51310;52.198;5.422;2023-06-14T03:38:36;101630.00;;;15.05;54.55
64844;BME280;51310;52.198;5.422;2023-06-14T03:41:02;101629.31;;;15.03;54.34
64844;BME280;51310;52.198;5.422;2023-06-14T03:43:28;101630.47;;;15.00;54.55
64844;BME280;51310;52.198;5.422;2023-06-14T03:45:55;101627.28;;;14.69;54.41
64844;BME280;51310;52.198;5.422;2023-06-14T03:48:21;101581.00;;;14.70;54.49
64844;BME280;51310;52.198;5.422;2023-06-14T03:50:47;101468.03;;;14.08;54.40
64844;BME280;51310;52.198;5.422;2023-06-14T03:53:13;101632.75;;;15.13;54.42
64844;BME280;51310;52.198;5.422;2023-06-14T03:55:39;101629.16;;;15.04;54.51
64844;BME280;51310;52.198;5.422;2023-06-14T03:58:05;101637.16;;;15.04;54.75
64844;BME280;51310;52.198;5.422;2023-06-14T04:00:31;101641.97;;;15.01;55.39
64844;BME280;51310;52.198;5.422;2023-06-14T04:02:57;101642.59;;;15.13;55.03
64844;BME280;51310;52.198;5.422;2023-06-14T04:05:24;101561.91;;;14.48;55.39
64844;BME280;51310;52.198;5.422;2023-06-14T04:07:52;101485.47;;;13.93;56.44
64844;BME280;51310;52.198;5.422;2023-06-14T04:10:21;101539.72;;;14.19;56.77
64844;BME280;51310;52.198;5.422;2023-06-14T04:12:48;101536.38;;;14.17;56.97
64844;BME280;51310;52.198;5.422;2023-06-14T04:15:14;101655.63;;;14.88;56.67
64844;BME280;51310;52.198;5.422;2023-06-14T04:17:40;101612.06;;;14.52;56.93
64844;BME280;51310;52.198;5.422;2023-06-14T04:20:07;101280.56;;;12.64;56.23
64844;BME280;51310;52.198;5.422;2023-06-14T04:22:35;100269.22;;;6.40;56.30
64844;BME280;51310;52.198;5.422;2023-06-14T04:25:02;101667.00;;;14.90;57.18
64844;BME280;51310;52.198;5.422;2023-06-14T04:27:29;101658.28;;;14.88;57.15
64844;BME280;51310;52.198;5.422;2023-06-14T04:29:57;101661.41;;;15.11;56.48
64844;BME280;51310;52.198;5.422;2023-06-14T04:32:26;101548.50;;;14.30;56.23
64844;BME280;51310;52.198;5.422;2023-06-14T04:34:56;101666.81;;;15.01;57.27
64844;BME280;51310;52.198;5.422;2023-06-14T04:37:23;101609.84;;;14.75;56.70
64844;BME280;51310;52.198;5.422;2023-06-14T04:39:49;101235.69;;;12.70;55.66
64844;BME280;51310;52.198;5.422;2023-06-14T04:42:16;101667.31;;;15.32;56.28
64844;BME280;51310;52.198;5.422;2023-06-14T04:44:43;101157.88;;;12.23;55.95
64844;BME280;51310;52.198;5.422;2023-06-14T04:47:10;101635.53;;;15.21;55.75
64844;BME280;51310;52.198;5.422;2023-06-14T04:49:38;101667.41;;;15.76;55.09
64844;BME280;51310;52.198;5.422;2023-06-14T04:52:06;101266.63;;;13.36;54.22
64844;BME280;51310;52.198;5.422;2023-06-14T04:54:33;101604.56;;;15.46;53.90
64844;BME280;51310;52.198;5.422;2023-06-14T04:56:59;101673.88;;;16.43;52.31
64844;BME280;51310;52.198;5.422;2023-06-14T04:59:25;101569.69;;;16.09;51.85
64844;BME280;51310;52.198;5.422;2023-06-14T05:01:52;101675.00;;;16.93;51.37
64844;BME280;51310;52.198;5.422;2023-06-14T05:04:19;101684.34;;;16.97;50.58
64844;BME280;51310;52.198;5.422;2023-06-14T05:06:46;101607.44;;;16.83;49.53
64844;BME280;51310;52.198;5.422;2023-06-14T05:09:15;101676.66;;;17.44;49.15
64844;BME280;51310;52.198;5.422;2023-06-14T05:11:44;101504.00;;;16.99;48.47
64844;BME280;51310;52.198;5.422;2023-06-14T05:14:14;101640.72;;;17.71;48.96
64844;BME280;51310;52.198;5.422;2023-06-14T05:16:40;101683.41;;;17.97;48.37
64844;BME280;51310;52.198;5.422;2023-06-14T05:19:07;101683.53;;;18.12;48.53
64844;BME280;51310;52.198;5.422;2023-06-14T05:21:33;101681.00;;;18.27;48.66
64844;BME280;51310;52.198;5.422;2023-06-14T05:24:02;101515.06;;;17.13;47.83
64844;BME280;51310;52.198;5.422;2023-06-14T05:26:29;101573.56;;;17.32;47.00
64844;BME280;51310;52.198;5.422;2023-06-14T05:28:56;101647.34;;;18.16;47.30
64844;BME280;51310;52.198;5.422;2023-06-14T05:31:24;101689.88;;;18.27;47.20
64844;BME280;51310;52.198;5.422;2023-06-14T05:33:52;101618.75;;;18.00;46.86
64844;BME280;51310;52.198;5.422;2023-06-14T05:36:19;101477.44;;;17.39;47.29
64844;BME280;51310;52.198;5.422;2023-06-14T05:38:47;101055.00;;;14.97;46.48
64844;BME280;51310;52.198;5.422;2023-06-14T05:41:13;101534.72;;;18.01;46.04
64844;BME280;51310;52.198;5.422;2023-06-14T05:43:39;101691.78;;;19.13;45.75
64844;BME280;51310;52.198;5.422;2023-06-14T05:46:05;101616.75;;;18.66;45.26
64844;BME280;51310;52.198;5.422;2023-06-14T05:48:31;101648.63;;;18.44;45.83
64844;BME280;51310;52.198;5.422;2023-06-14T05:50:58;101613.16;;;18.34;45.53
64844;BME280;51310;52.198;5.422;2023-06-14T05:53:25;101667.31;;;18.77;45.33
64844;BME280;51310;52.198;5.422;2023-06-14T05:55:51;101706.28;;;19.04;44.83
64844;BME280;51310;52.198;5.422;2023-06-14T05:58:21;101708.66;;;19.30;44.88
64844;BME280;51310;52.198;5.422;2023-06-14T06:00:47;101706.03;;;19.45;44.39
64844;BME280;51310;52.198;5.422;2023-06-14T06:03:13;101660.50;;;19.28;44.41
64844;BME280;51310;52.198;5.422;2023-06-14T06:05:40;101647.28;;;19.50;44.10
64844;BME280;51310;52.198;5.422;2023-06-14T06:08:05;101613.28;;;18.88;43.29
64844;BME280;51310;52.198;5.422;2023-06-14T06:10:32;101554.13;;;18.50;43.67
64844;BME280;51310;52.198;5.422;2023-06-14T06:12:58;101694.75;;;19.57;43.35
64844;BME280;51310;52.198;5.422;2023-06-14T06:15:24;101712.75;;;19.94;43.13
64844;BME280;51310;52.198;5.422;2023-06-14T06:17:50;101723.63;;;19.55;43.33
64844;BME280;51310;52.198;5.422;2023-06-14T06:20:16;101720.88;;;19.86;43.00
64844;BME280;51310;52.198;5.422;2023-06-14T06:22:43;101720.78;;;20.17;42.84
64844;BME280;51310;52.198;5.422;2023-06-14T06:25:09;101645.94;;;19.23;42.06
64844;BME280;51310;52.198;5.422;2023-06-14T06:27:35;101738.06;;;19.77;42.63
64844;BME280;51310;52.198;5.422;2023-06-14T06:30:03;101723.94;;;19.83;41.93
64844;BME280;51310;52.198;5.422;2023-06-14T06:32:29;101717.69;;;20.06;41.28
64844;BME280;51310;52.198;5.422;2023-06-14T06:34:55;101320.38;;;17.86;41.03
64844;BME280;51310;52.198;5.422;2023-06-14T06:37:21;101644.97;;;19.70;41.02
64844;BME280;51310;52.198;5.422;2023-06-14T06:39:47;101726.06;;;20.11;41.54
64844;BME280;51310;52.198;5.422;2023-06-14T06:42:13;101733.88;;;20.20;41.46
64844;BME280;51310;52.198;5.422;2023-06-14T06:44:39;101690.09;;;20.12;40.69
64844;BME280;51310;52.198;5.422;2023-06-14T06:47:06;101586.41;;;19.42;41.37
64844;BME280;51310;52.198;5.422;2023-06-14T06:49:31;101739.72;;;20.24;40.94
64844;BME280;51310;52.198;5.422;2023-06-14T06:52:05;101755.22;;;20.37;41.97
64844;BME280;51310;52.198;5.422;2023-06-14T06:54:33;101703.44;;;20.05;41.13
64844;BME280;51310;52.198;5.422;2023-06-14T06:57:00;101627.69;;;19.41;42.04
64844;BME280;51310;52.198;5.422;2023-06-14T06:59:29;101759.19;;;20.26;40.98
64844;BME280;51310;52.198;5.422;2023-06-14T07:01:56;101751.69;;;20.36;41.19
64844;BME280;51310;52.198;5.422;2023-06-14T07:04:22;101705.78;;;19.62;41.28
64844;BME280;51310;52.198;5.422;2023-06-14T07:06:48;101792.44;;;20.10;41.76
64844;BME280;51310;52.198;5.422;2023-06-14T07:09:14;101678.50;;;19.74;41.56
64844;BME280;51310;52.198;5.422;2023-06-14T07:11:44;101577.06;;;19.38;41.36
64844;BME280;51310;52.198;5.422;2023-06-14T07:14:11;101722.44;;;20.18;40.79
64844;BME280;51310;52.198;5.422;2023-06-14T07:16:37;101757.06;;;20.74;40.85
64844;BME280;51310;52.198;5.422;2023-06-14T07:19:04;101752.34;;;20.76;39.48
64844;BME280;51310;52.198;5.422;2023-06-14T07:21:30;101434.72;;;18.94;40.49
64844;BME280;51310;52.198;5.422;2023-06-14T07:23:57;101760.47;;;20.83;39.91
64844;BME280;51310;52.198;5.422;2023-06-14T07:26:23;101755.66;;;21.07;40.51
64844;BME280;51310;52.198;5.422;2023-06-14T07:28:49;101763.28;;;21.19;39.62
64844;BME280;51310;52.198;5.422;2023-06-14T07:31:16;101763.00;;;20.99;38.20
64844;BME280;51310;52.198;5.422;2023-06-14T07:33:42;101738.22;;;21.03;39.24
64844;BME280;51310;52.198;5.422;2023-06-14T07:36:08;101736.84;;;20.78;37.54
64844;BME280;51310;52.198;5.422;2023-06-14T07:38:34;101764.56;;;21.23;37.98
64844;BME280;51310;52.198;5.422;2023-06-14T07:41:02;101808.97;;;21.27;38.02
64844;BME280;51310;52.198;5.422;2023-06-14T07:43:28;101801.06;;;21.40;37.85
64844;BME280;51310;52.198;5.422;2023-06-14T07:45:55;101765.84;;;21.42;37.65
64844;BME280;51310;52.198;5.422;2023-06-14T07:48:22;101772.19;;;21.70;37.56
64844;BME280;51310;52.198;5.422;2023-06-14T07:50:48;101775.03;;;21.47;37.06
64844;BME280;51310;52.198;5.422;2023-06-14T07:53:14;101684.56;;;21.17;37.05
64844;BME280;51310;52.198;5.422;2023-06-14T07:55:40;101779.44;;;21.70;36.43
64844;BME280;51310;52.198;5.422;2023-06-14T07:58:09;101743.66;;;21.40;35.84
64844;BME280;51310;52.198;5.422;2023-06-14T08:00:36;101775.09;;;21.54;36.09
64844;BME280;51310;52.198;5.422;2023-06-14T08:03:02;101777.50;;;21.63;35.41
64844;BME280;51310;52.198;5.422;2023-06-14T08:05:29;101788.22;;;21.78;35.14
64844;BME280;51310;52.198;5.422;2023-06-14T08:07:55;101730.44;;;21.59;35.63
64844;BME280;51310;52.198;5.422;2023-06-14T08:10:22;101319.19;;;19.10;34.65
64844;BME280;51310;52.198;5.422;2023-06-14T08:12:49;101780.97;;;22.15;34.44
64844;BME280;51310;52.198;5.422;2023-06-14T08:15:18;101767.38;;;21.87;35.28
64844;BME280;51310;52.198;5.422;2023-06-14T08:17:45;101733.66;;;22.12;34.74
64844;BME280;51310;52.198;5.422;2023-06-14T08:20:12;101781.41;;;22.18;34.16
64844;BME280;51310;52.198;5.422;2023-06-14T08:22:42;101771.56;;;22.11;34.61
64844;BME280;51310;52.198;5.422;2023-06-14T08:25:09;101740.69;;;21.92;32.50
64844;BME280;51310;52.198;5.422;2023-06-14T08:27:37;101789.47;;;22.40;33.83
64844;BME280;51310;52.198;5.422;2023-06-14T08:30:04;101712.59;;;22.01;32.76
64844;BME280;51310;52.198;5.422;2023-06-14T08:32:30;101782.94;;;22.56;32.45
64844;BME280;51310;52.198;5.422;2023-06-14T08:34:56;101775.50;;;22.58;32.70
64844;BME280;51310;52.198;5.422;2023-06-14T08:37:22;101727.31;;;22.27;32.71
64844;BME280;51310;52.198;5.422;2023-06-14T08:42:24;101789.06;;;22.99;32.35
64844;BME280;51310;52.198;5.422;2023-06-14T08:44:50;101324.69;;;19.82;32.24
64844;BME280;51310;52.198;5.422;2023-06-14T08:47:17;101711.25;;;22.12;32.30
64844;BME280;51310;52.198;5.422;2023-06-14T08:49:47;101816.94;;;22.78;32.27
64844;BME280;51310;52.198;5.422;2023-06-14T08:52:15;101779.31;;;22.70;32.54
64844;BME280;51310;52.198;5.422;2023-06-14T08:54:46;101367.22;;;20.15;31.76
64844;BME280;51310;52.198;5.422;2023-06-14T08:57:14;101364.53;;;20.36;31.80
64844;BME280;51310;52.198;5.422;2023-06-14T08:59:47;101328.00;;;20.20;31.74
64844;BME280;51310;52.198;5.422;2023-06-14T09:02:18;101210.41;;;19.80;30.73
64844;BME280;51310;52.198;5.422;2023-06-14T09:04:47;101539.47;;;21.78;30.89
64844;BME280;51310;52.198;5.422;2023-06-14T09:07:15;101789.66;;;23.29;30.83
64844;BME280;51310;52.198;5.422;2023-06-14T09:09:41;101786.56;;;22.97;30.66
64844;BME280;51310;52.198;5.422;2023-06-14T09:12:11;101637.41;;;22.13;30.50
64844;BME280;51310;52.198;5.422;2023-06-14T09:14:38;101756.47;;;23.07;31.20
64844;BME280;51310;52.198;5.422;2023-06-14T09:17:05;101250.31;;;19.47;30.98
64844;BME280;51310;52.198;5.422;2023-06-14T09:19:32;101785.81;;;22.82;31.61
64844;BME280;51310;52.198;5.422;2023-06-14T09:21:59;101823.38;;;23.05;31.19
64844;BME280;51310;52.198;5.422;2023-06-14T09:24:25;101336.19;;;20.34;30.74
64844;BME280;51310;52.198;5.422;2023-06-14T09:26:51;101796.63;;;23.17;31.08
64844;BME280;51310;52.198;5.422;2023-06-14T09:29:18;101792.44;;;22.79;31.28
64844;BME280;51310;52.198;5.422;2023-06-14T09:31:47;101788.72;;;23.15;30.93
64844;BME280;51310;52.198;5.422;2023-06-14T09:34:13;101752.13;;;23.06;29.71
64844;BME280;51310;52.198;5.422;2023-06-14T09:36:40;101346.00;;;20.91;29.16
64844;BME280;51310;52.198;5.422;2023-06-14T09:39:08;101250.59;;;20.37;29.60
64844;BME280;51310;52.198;5.422;2023-06-14T09:41:41;101150.00;;;19.54;30.45
64844;BME280;51310;52.198;5.422;2023-06-14T09:44:09;101423.81;;;21.14;30.27
64844;BME280;51310;52.198;5.422;2023-06-14T09:46:37;101353.31;;;21.03;31.06
64844;BME280;51310;52.198;5.422;2023-06-14T09:49:04;101338.69;;;20.57;29.92
64844;BME280;51310;52.198;5.422;2023-06-14T09:51:31;101328.84;;;20.64;30.35
64844;BME280;51310;52.198;5.422;2023-06-14T09:54:00;101255.56;;;20.12;29.77
64844;BME280;51310;52.198;5.422;2023-06-14T09:56:32;101304.03;;;20.68;30.42
64844;BME280;51310;52.198;5.422;2023-06-14T09:59:05;101339.25;;;21.01;30.23
64844;BME280;51310;52.198;5.422;2023-06-14T10:01:33;101805.88;;;23.97;29.83
64844;BME280;51310;52.198;5.422;2023-06-14T10:04:06;101554.25;;;21.88;30.32
64844;BME280;51310;52.198;5.422;2023-06-14T10:06:36;101786.09;;;23.28;30.77
64844;BME280;51310;52.198;5.422;2023-06-14T10:09:09;101788.41;;;23.31;30.43
64844;BME280;51310;52.198;5.422;2023-06-14T10:11:37;101642.75;;;22.82;30.17
64844;BME280;51310;52.198;5.422;2023-06-14T10:14:12;101707.78;;;23.35;29.68
64844;BME280;51310;52.198;5.422;2023-06-14T10:17:08;101692.78;;;23.19;28.70
64844;BME280;51310;52.198;5.422;2023-06-14T10:20:03;101308.66;;;20.81;28.20
64844;BME280;51310;52.198;5.422;2023-06-14T10:23:15;101641.69;;;23.24;28.61
64844;BME280;51310;52.198;5.422;2023-06-14T10:25:44;101214.59;;;20.60;29.93
64844;BME280;51310;52.198;5.422;2023-06-14T10:28:16;101778.44;;;24.06;28.65
64844;BME280;51310;52.198;5.422;2023-06-14T10:33:58;101781.56;;;24.10;28.96
64844;BME280;51310;52.198;5.422;2023-06-14T10:36:30;101287.84;;;20.62;29.37
64844;BME280;51310;52.198;5.422;2023-06-14T10:41:35;101336.41;;;21.38;28.91
64844;BME280;51310;52.198;5.422;2023-06-14T10:46:52;101299.97;;;21.14;28.64
64844;BME280;51310;52.198;5.422;2023-06-14T10:49:42;101724.50;;;23.58;29.16
64844;BME280;51310;52.198;5.422;2023-06-14T10:52:15;101743.47;;;23.98;29.80
64844;BME280;51310;52.198;5.422;2023-06-14T10:55:07;101740.13;;;23.89;28.61
64844;BME280;51310;52.198;5.422;2023-06-14T10:57:46;101789.22;;;23.86;28.58
64844;BME280;51310;52.198;5.422;2023-06-14T11:00:18;101744.69;;;23.76;29.42
64844;BME280;51310;52.198;5.422;2023-06-14T11:05:55;101223.22;;;20.27;29.34
64844;BME280;51310;52.198;5.422;2023-06-14T11:08:56;101642.63;;;22.90;29.11
64844;BME280;51310;52.198;5.422;2023-06-14T11:11:49;101555.34;;;22.76;29.74
64844;BME280;51310;52.198;5.422;2023-06-14T11:14:17;101660.19;;;23.34;28.91
64844;BME280;51310;52.198;5.422;2023-06-14T11:16:49;101690.22;;;23.72;29.85
64844;BME280;51310;52.198;5.422;2023-06-14T11:19:15;101773.03;;;24.19;29.28
64844;BME280;51310;52.198;5.422;2023-06-14T11:21:42;101284.63;;;21.42;29.58
64844;BME280;51310;52.198;5.422;2023-06-14T11:24:12;101318.66;;;21.56;29.08
64844;BME280;51310;52.198;5.422;2023-06-14T11:26:40;101688.56;;;23.78;29.31
64844;BME280;51310;52.198;5.422;2023-06-14T11:29:06;101783.66;;;24.61;28.91
64844;BME280;51310;52.198;5.422;2023-06-14T11:31:32;101709.34;;;23.90;27.81
64844;BME280;51310;52.198;5.422;2023-06-14T11:33:59;101693.53;;;24.01;27.60
64844;BME280;51310;52.198;5.422;2023-06-14T11:36:30;101683.56;;;24.01;28.26
64844;BME280;51310;52.198;5.422;2023-06-14T11:39:03;101769.50;;;24.45;28.27
64844;BME280;51310;52.198;5.422;2023-06-14T11:41:40;101582.09;;;22.71;28.62
64844;BME280;51310;52.198;5.422;2023-06-14T11:44:08;101239.19;;;20.85;28.63
64844;BME280;51310;52.198;5.422;2023-06-14T11:46:35;101645.63;;;23.28;28.67
64844;BME280;51310;52.198;5.422;2023-06-14T11:49:03;101811.31;;;24.23;29.04
64844;BME280;51310;52.198;5.422;2023-06-14T11:51:36;101303.44;;;21.35;29.75
64844;BME280;51310;52.198;5.422;2023-06-14T11:54:05;101759.91;;;24.30;28.70
64844;BME280;51310;52.198;5.422;2023-06-14T11:56:32;101742.63;;;23.98;28.26
64844;BME280;51310;52.198;5.422;2023-06-14T11:58:58;101751.13;;;23.81;28.67
64844;BME280;51310;52.198;5.422;2023-06-14T12:01:24;101681.44;;;23.57;28.75
64844;BME280;51310;52.198;5.422;2023-06-14T12:03:53;101760.56;;;24.51;28.50
64844;BME280;51310;52.198;5.422;2023-06-14T12:06:29;101353.63;;;21.91;28.46
64844;BME280;51310;52.198;5.422;2023-06-14T12:08:58;101763.22;;;24.71;28.74
64844;BME280;51310;52.198;5.422;2023-06-14T12:11:34;101729.53;;;24.34;28.55
64844;BME280;51310;52.198;5.422;2023-06-14T12:14:07;101721.44;;;23.94;28.16
64844;BME280;51310;52.198;5.422;2023-06-14T12:16:37;101783.63;;;24.80;27.94
64844;BME280;51310;52.198;5.422;2023-06-14T12:19:26;101765.13;;;24.24;29.33
64844;BME280;51310;52.198;5.422;2023-06-14T12:21:52;101755.16;;;24.58;28.64
64844;BME280;51310;52.198;5.422;2023-06-14T12:24:18;101208.06;;;21.84;29.24
64844;BME280;51310;52.198;5.422;2023-06-14T12:26:43;101757.91;;;25.16;28.43
64844;BME280;51310;52.198;5.422;2023-06-14T12:29:10;101335.22;;;22.08;28.36
64844;BME280;51310;52.198;5.422;2023-06-14T12:31:37;101691.47;;;23.89;28.47
64844;BME280;51310;52.198;5.422;2023-06-14T12:34:03;101247.78;;;21.49;29.04
64844;BME280;51310;52.198;5.422;2023-06-14T12:36:29;101414.81;;;22.78;28.98
64844;BME280;51310;52.198;5.422;2023-06-14T12:38:57;101666.06;;;24.43;28.67
64844;BME280;51310;52.198;5.422;2023-06-14T12:41:22;101825.94;;;24.48;28.32
64844;BME280;51310;52.198;5.422;2023-06-14T12:43:49;101771.38;;;24.05;28.68
64844;BME280;51310;52.198;5.422;2023-06-14T12:46:16;101676.84;;;23.44;28.40
64844;BME280;51310;52.198;5.422;2023-06-14T12:48:42;101608.41;;;23.17;28.87
64844;BME280;51310;52.198;5.422;2023-06-14T12:51:08;101493.03;;;22.58;28.70
64844;BME280;51310;52.198;5.422;2023-06-14T12:53:34;101321.31;;;22.04;28.34
64844;BME280;51310;52.198;5.422;2023-06-14T12:56:00;101315.94;;;21.50;28.47
64844;BME280;51310;52.198;5.422;2023-06-14T12:58:26;101646.75;;;23.74;28.22
64844;BME280;51310;52.198;5.422;2023-06-14T13:00:52;101735.78;;;24.21;28.55
64844;BME280;51310;52.198;5.422;2023-06-14T13:03:18;101433.41;;;22.40;28.03
64844;BME280;51310;52.198;5.422;2023-06-14T13:05:44;101764.84;;;24.92;28.05
64844;BME280;51310;52.198;5.422;2023-06-14T13:08:10;101830.88;;;24.91;26.70
64844;BME280;51310;52.198;5.422;2023-06-14T13:10:36;101555.66;;;23.15;26.73